.
WxDataArchive / Data Records for 2007-08-07
2007-08-06 August 2007 2007-08-08

Data Records for Tuesday, 07 August 2007

Time	Temp	Chill	HIndex	Humid	Dewpt	 Wind 	HiWind	WindDir	Rain 	Barom 
-----	----	-----	------	-----	-----	------	------	-------	-----	----- 
00:00	77.2	77.2	78.6	92	74.7	0	0	---	0.00	29.770 
00:05	77.2	77.2	78.6	92	74.7	0	0	---	0.01	29.767 
00:10	77.2	77.2	78.5	93	75.0	0	1	248	0.00	29.766 
00:15	77.2	77.2	78.5	93	75.0	0	1	248	0.00	29.761 
00:20	77.0	77.0	78.0	93	74.8	0	0	---	0.00	29.762 
00:25	77.0	77.0	78.0	93	74.8	0	0	---	0.00	29.761 
00:30	76.8	76.8	77.5	93	74.6	0	0	---	0.00	29.760 
00:35	76.8	76.8	77.5	94	74.9	0	0	---	0.00	29.757 
00:40	76.8	76.8	77.5	94	74.9	0	1	248	0.00	29.761 
00:45	76.7	76.7	77.2	94	74.8	0	1	248	0.00	29.763 
00:50	76.5	76.5	76.8	94	74.6	0	1	248	0.00	29.765 
00:55	76.5	76.5	76.8	94	74.6	0	0	---	0.00	29.765 
01:00	76.3	76.3	76.3	94	74.4	0	0	---	0.00	29.768 
01:05	76.3	76.3	76.3	94	74.4	0	0	---	0.00	29.766 
01:10	76.3	76.3	76.3	94	74.4	0	0	---	0.00	29.767 
01:15	76.1	76.1	75.8	94	74.2	0	0	---	0.00	29.766 
01:20	76.1	76.1	75.8	94	74.2	0	0	---	0.00	29.762 
01:25	76.0	76.0	75.6	94	74.1	0	0	---	0.00	29.763 
01:30	76.0	76.0	75.6	94	74.1	0	0	---	0.00	29.766 
01:35	76.0	76.0	75.6	94	74.1	0	0	---	0.00	29.766 
01:40	75.8	75.8	75.1	94	73.9	0	0	---	0.00	29.764 
01:45	75.8	75.8	75.1	94	73.9	0	0	---	0.00	29.759 
01:50	75.8	75.8	75.0	95	74.3	0	0	---	0.00	29.761 
01:55	75.8	75.8	75.0	95	74.3	0	0	---	0.00	29.762 
02:00	75.6	75.6	74.5	95	74.1	0	0	---	0.00	29.760 
02:05	75.6	75.6	74.5	95	74.1	0	0	---	0.00	29.753 
02:10	75.6	75.6	74.5	95	74.1	0	0	---	0.00	29.750 
02:15	75.8	75.8	74.8	96	74.6	0	0	---	0.00	29.747 
02:20	75.8	75.8	75.0	95	74.3	0	0	---	0.00	29.740 
02:25	75.6	75.6	74.5	95	74.1	0	1	248	0.00	29.734 
02:30	75.6	75.6	74.4	96	74.4	0	1	248	0.00	29.734 
02:35	75.4	75.4	74.1	95	73.9	0	1	248	0.00	29.737 
02:40	75.3	75.3	73.8	95	73.8	0	1	248	0.00	29.737 
02:45	75.3	75.3	73.8	95	73.8	0	0	---	0.00	29.738 
02:50	75.1	75.1	73.4	95	73.6	0	1	248	0.00	29.737 
02:55	75.1	75.1	73.4	95	73.6	0	1	248	0.00	29.737 
03:00	75.1	75.1	73.4	95	73.6	0	1	248	0.00	29.740 
03:05	75.1	75.1	73.4	95	73.6	0	0	---	0.00	29.741 
03:10	75.1	75.1	73.4	95	73.6	0	0	---	0.00	29.746 
03:15	74.9	74.9	74.9	95	73.4	0	0	---	0.00	29.741 
03:20	74.9	74.9	74.9	95	73.4	0	1	248	0.00	29.739 
03:25	74.9	74.9	74.9	95	73.4	0	0	---	0.00	29.741 
03:30	74.9	74.9	74.9	95	73.4	0	0	---	0.00	29.744 
03:35	74.9	74.9	74.9	95	73.4	0	1	248	0.00	29.743 
03:40	74.9	74.9	74.9	95	73.4	0	0	---	0.00	29.745 
03:45	74.7	74.7	74.7	95	73.2	0	0	---	0.00	29.743 
03:50	74.7	74.7	74.7	95	73.2	0	0	---	0.00	29.744 
03:55	74.7	74.7	74.7	95	73.2	0	0	---	0.00	29.739 
04:00	74.7	74.7	74.7	95	73.2	0	0	---	0.00	29.737 
04:05	74.7	74.7	74.7	95	73.2	0	0	---	0.00	29.737 
04:10	74.9	74.9	74.9	95	73.4	0	1	248	0.00	29.736 
04:15	74.9	74.9	74.9	95	73.4	0	1	248	0.00	29.737 
04:20	74.7	74.7	74.7	95	73.2	0	1	248	0.00	29.736 
04:25	74.7	74.7	74.7	95	73.2	0	1	248	0.00	29.735 
04:30	74.7	74.7	74.7	95	73.2	0	0	---	0.00	29.736 
04:35	74.7	74.7	74.7	94	72.9	0	0	---	0.00	29.736 
04:40	74.7	74.7	74.7	94	72.9	0	1	248	0.00	29.736 
04:45	74.6	74.6	74.6	94	72.8	0	0	---	0.00	29.735 
04:50	74.6	74.6	74.6	94	72.8	0	0	---	0.00	29.735 
04:55	74.6	74.6	74.6	94	72.8	0	0	---	0.00	29.738 
05:00	74.6	74.6	74.6	94	72.8	0	1	248	0.00	29.741 
05:05	74.6	74.6	74.6	94	72.8	0	0	---	0.00	29.740 
05:10	74.6	74.6	74.6	94	72.8	0	0	---	0.00	29.741 
05:15	74.6	74.6	74.6	94	72.8	0	1	248	0.00	29.738 
05:20	74.6	74.6	74.6	94	72.8	0	0	---	0.00	29.742 
05:25	74.6	74.6	74.6	94	72.8	0	0	---	0.00	29.740 
05:30	74.4	74.4	74.4	94	72.6	0	0	---	0.00	29.746 
05:35	74.4	74.4	74.4	94	72.6	0	0	---	0.00	29.748 
05:40	74.4	74.4	74.4	94	72.6	0	0	---	0.00	29.746 
05:45	74.2	74.2	74.2	94	72.4	0	0	---	0.00	29.747 
05:50	74.2	74.2	74.2	94	72.4	0	0	---	0.00	29.747 
05:55	74.2	74.2	74.2	94	72.4	0	0	---	0.00	29.746 
06:00	74.2	74.2	74.2	94	72.4	0	0	---	0.00	29.747 
06:05	74.2	74.2	74.2	94	72.4	0	0	---	0.00	29.749 
06:10	74.2	74.2	74.2	94	72.4	0	0	---	0.00	29.752 
06:15	74.2	74.2	74.2	94	72.4	0	0	---	0.00	29.755 
06:20	74.2	74.2	74.2	94	72.4	0	0	---	0.00	29.755 
06:25	74.2	74.2	74.2	95	72.7	0	0	---	0.00	29.757 
06:30	74.2	74.2	74.2	95	72.7	0	0	---	0.00	29.755 
06:35	74.2	74.2	74.2	95	72.7	0	0	---	0.00	29.755 
06:40	74.2	74.2	74.2	94	72.4	0	0	---	0.00	29.754 
06:45	74.4	74.4	74.4	94	72.6	0	0	---	0.00	29.754 
06:50	74.4	74.4	74.4	94	72.6	0	0	---	0.00	29.754 
06:55	74.4	74.4	74.4	94	72.6	0	0	---	0.00	29.755 
07:00	74.6	74.6	74.6	94	72.8	0	0	---	0.00	29.756 
07:05	74.6	74.6	74.6	94	72.8	0	0	---	0.00	29.762 
07:10	74.6	74.6	74.6	94	72.8	0	0	---	0.00	29.767 
07:15	74.7	74.7	74.7	94	72.9	0	0	---	0.00	29.770 
07:20	74.7	74.7	74.7	94	72.9	0	0	---	0.00	29.776 
07:25	74.9	74.9	74.9	94	73.0	0	1	248	0.00	29.790 
07:30	75.1	75.1	73.6	94	73.2	0	1	248	0.01	29.811 
07:35	74.9	74.9	74.9	94	73.0	1	6	292	0.02	29.827 
07:40	73.9	73.9	73.9	91	71.1	4	12	292	0.00	29.818 
07:45	73.3	73.3	73.3	92	70.8	1	6	315	0.00	29.819 
07:50	73.0	73.0	73.0	92	70.5	1	4	292	0.00	29.821 
07:55	72.5	72.5	72.5	92	70.0	1	6	338	0.00	29.820 
08:00	72.3	72.3	72.3	92	69.8	1	4	338	0.06	29.823 
08:05	72.0	72.0	72.0	93	69.9	0	1	0	0.07	29.812 
08:10	71.8	71.8	71.8	94	70.0	0	2	0	0.02	29.806 
08:15	71.6	71.6	71.6	95	70.1	0	2	0	0.00	29.806 
08:20	71.6	71.6	71.6	95	70.1	0	1	0	0.00	29.806 
08:25	71.6	71.6	71.6	95	70.1	0	1	0	0.00	29.806 
08:30	71.8	71.8	71.8	95	70.3	0	0	---	0.00	29.804 
08:35	71.8	71.8	71.8	95	70.3	0	0	---	0.00	29.800 
08:40	72.0	72.0	72.0	96	70.8	0	0	---	0.00	29.795 
08:45	72.1	72.1	72.1	96	70.9	0	1	0	0.00	29.791 
08:50	72.5	72.5	72.5	96	71.3	0	1	0	0.00	29.789 
08:55	72.5	72.5	72.5	96	71.3	0	1	0	0.00	29.781 
09:00	72.8	72.8	72.8	96	71.6	0	0	---	0.00	29.782 
09:05	73.2	73.2	73.2	96	72.0	0	1	0	0.00	29.778 
09:10	73.5	73.5	73.5	96	72.3	0	1	0	0.00	29.776 
09:15	73.9	73.9	73.9	96	72.7	1	3	0	0.00	29.773 
09:20	74.0	74.0	74.0	95	72.5	0	2	0	0.00	29.772 
09:25	74.2	74.2	74.2	94	72.4	0	1	0	0.00	29.774 
09:30	74.6	74.6	74.6	93	72.4	0	2	0	0.00	29.774 
09:35	74.7	74.7	74.7	92	72.2	0	2	0	0.00	29.773 
09:40	75.1	75.1	73.9	92	72.6	0	2	0	0.00	29.773 
09:45	75.3	75.3	74.5	91	72.5	0	1	0	0.00	29.775 
09:50	75.6	75.6	75.2	90	72.4	0	2	0	0.00	29.773 
09:55	76.0	76.0	76.2	89	72.5	0	2	22	0.00	29.773 
10:00	76.1	76.1	76.5	88	72.3	1	3	45	0.00	29.772 
10:05	76.5	76.5	77.2	88	72.7	1	2	45	0.00	29.772 
10:10	76.8	76.8	78.0	86	72.3	1	3	90	0.00	29.767 
10:15	77.4	77.4	79.2	86	72.9	0	2	90	0.00	29.768 
10:20	77.7	77.7	79.8	84	72.5	1	3	90	0.00	29.769 
10:25	78.1	78.1	80.6	83	72.5	1	2	90	0.00	29.769 
10:30	78.3	78.3	81.0	83	72.7	1	3	90	0.00	29.769 
10:35	78.5	78.5	81.3	81	72.2	1	3	22	0.00	29.766 
10:40	78.6	78.6	81.4	79	71.5	2	5	90	0.00	29.765 
10:45	78.8	78.8	81.9	81	72.5	1	3	90	0.00	29.764 
10:50	79.2	79.2	82.4	78	71.7	1	4	112	0.00	29.762 
10:55	79.6	79.6	83.1	77	71.7	1	4	90	0.00	29.764 
11:00	79.9	79.9	83.8	78	72.4	1	3	90	0.00	29.761 
11:05	80.3	80.3	84.4	77	72.4	1	6	112	0.00	29.759 
11:10	80.9	80.9	85.7	77	73.0	0	3	270	0.00	29.757 
11:15	81.1	81.1	85.5	74	72.0	1	4	270	0.00	29.757 
11:20	81.2	81.2	85.9	75	72.5	1	4	135	0.00	29.757 
11:25	81.6	81.6	87.2	77	73.7	1	4	270	0.00	29.758 
11:30	82.2	82.2	88.3	76	73.9	2	5	90	0.00	29.756 
11:35	82.2	82.2	88.0	75	73.5	2	7	45	0.00	29.756 
11:40	82.6	82.6	88.9	75	73.8	1	5	292	0.00	29.751 
11:45	83.0	83.0	89.8	75	74.2	2	5	90	0.00	29.747 
11:50	83.2	83.2	89.7	73	73.6	2	4	270	0.00	29.750 
11:55	83.6	83.6	90.5	73	74.0	2	5	270	0.00	29.743 
12:00	84.0	84.0	91.8	74	74.8	1	4	270	0.00	29.740 
12:05	84.5	84.5	92.3	72	74.5	2	5	248	0.00	29.740 
12:10	84.7	84.7	92.4	71	74.2	2	5	270	0.00	29.739 
12:15	85.1	85.1	94.1	73	75.4	2	10	270	0.00	29.738 
12:20	85.7	85.7	94.3	70	74.8	2	5	90	0.00	29.735 
12:25	86.1	86.1	96.2	72	76.0	2	5	90	0.00	29.734 
12:30	86.5	86.5	96.3	70	75.5	1	5	292	0.00	29.732 
12:35	86.7	86.7	96.3	69	75.3	2	5	292	0.00	29.734 
12:40	87.4	87.4	98.6	70	76.4	1	4	90	0.00	29.733 
12:45	87.8	87.8	99.1	69	76.3	2	5	270	0.00	29.732 
12:50	87.8	87.8	97.6	66	75.0	1	3	292	0.00	29.731 
12:55	88.2	88.2	99.6	68	76.3	1	4	270	0.00	29.727 
13:00	88.2	88.2	98.0	65	74.9	2	6	270	0.00	29.725 
13:05	88.4	88.4	99.1	66	75.6	2	4	270	0.00	29.722 
13:10	88.8	88.8	100.1	66	75.9	2	3	270	0.00	29.721 
13:15	89.0	89.0	100.0	65	75.7	2	4	270	0.00	29.720 
13:20	89.3	89.3	100.8	65	76.0	2	5	248	0.00	29.719 
13:25	89.7	89.7	100.1	62	74.9	2	4	270	0.00	29.715 
13:30	89.9	89.9	100.6	62	75.1	2	4	270	0.00	29.713 
13:35	90.1	90.1	101.1	62	75.3	2	5	270	0.00	29.708 
13:40	90.3	90.3	99.8	59	74.0	2	5	270	0.00	29.705 
13:45	90.7	90.7	102.0	61	75.4	2	6	270	0.00	29.704 
13:50	91.4	91.4	103.8	61	76.0	1	3	270	0.00	29.700 
13:55	91.4	91.4	101.9	58	74.5	3	7	270	0.00	29.699 
14:00	91.4	91.4	101.9	58	74.5	2	4	270	0.00	29.697 
14:05	91.4	91.4	101.9	58	74.5	3	6	270	0.00	29.701 
14:10	91.4	91.4	102.5	59	75.0	2	4	270	0.00	29.696 
14:15	91.2	91.2	101.4	58	74.3	3	7	270	0.00	29.694 
14:20	91.4	91.4	101.3	57	74.0	2	7	270	0.00	29.690 
14:25	91.2	91.2	100.8	57	73.8	2	5	270	0.00	29.689 
14:30	90.7	90.7	99.6	57	73.3	2	6	270	0.00	29.690 
14:35	90.3	90.3	99.3	58	73.5	2	5	270	0.00	29.689 
14:40	90.1	90.1	99.4	59	73.8	2	6	270	0.00	29.690 
14:45	89.9	89.9	100.0	61	74.6	2	5	248	0.00	29.691 
14:50	90.1	90.1	99.9	60	74.3	2	4	270	0.00	29.691 
14:55	91.0	91.0	100.3	57	73.6	2	5	270	0.00	29.688 
15:00	91.0	91.0	99.7	56	73.1	2	5	270	0.00	29.688 
15:05	91.2	91.2	99.6	55	72.7	2	5	270	0.00	29.688 
15:10	91.2	91.2	101.4	58	74.3	1	3	270	0.00	29.688 
15:15	91.2	91.2	100.2	56	73.3	2	5	292	0.00	29.687 
15:20	91.6	91.6	101.1	56	73.6	2	5	270	0.00	29.686 
15:25	91.4	91.4	100.1	55	72.9	2	3	248	0.00	29.687 
15:30	90.7	90.7	99.1	56	72.8	2	4	270	0.00	29.685 
15:35	90.5	90.5	99.2	57	73.1	2	5	270	0.00	29.685 
15:40	91.0	91.0	100.3	57	73.6	2	4	270	0.00	29.686 
15:45	91.2	91.2	101.4	58	74.3	1	3	248	0.00	29.686 
15:50	90.7	90.7	99.1	56	72.8	2	3	248	0.00	29.686 
15:55	90.3	90.3	99.3	58	73.5	2	4	270	0.00	29.685 
16:00	90.5	90.5	99.7	58	73.7	2	4	270	0.00	29.683 
16:05	91.0	91.0	100.9	58	74.1	2	4	270	0.00	29.682 
16:10	91.6	91.6	101.7	57	74.2	2	3	248	0.00	29.679 
16:15	92.1	92.1	102.3	56	74.1	1	4	270	0.00	29.681 
16:20	92.3	92.3	101.5	54	73.2	2	4	270	0.00	29.681 
16:25	92.1	92.1	101.7	55	73.6	3	11	270	0.00	29.677 
16:30	91.8	91.8	101.0	55	73.3	3	9	270	0.00	29.679 
16:35	91.8	91.8	101.6	56	73.8	1	4	248	0.00	29.678 
16:40	91.6	91.6	101.1	56	73.6	3	6	248	0.00	29.675 
16:45	91.2	91.2	100.2	56	73.3	3	9	270	0.00	29.677 
16:50	91.0	91.0	99.7	56	73.1	3	10	270	0.00	29.679 
16:55	91.0	91.0	100.3	57	73.6	3	8	270	0.00	29.675 
17:00	90.7	90.7	99.1	56	72.8	3	7	270	0.00	29.673 
17:05	90.5	90.5	99.7	58	73.7	2	6	270	0.00	29.677 
17:10	90.5	90.5	99.7	58	73.7	2	6	270	0.00	29.678 
17:15	90.7	90.7	100.2	58	73.8	2	6	248	0.00	29.681 
17:20	90.3	90.3	99.3	58	73.5	3	7	248	0.00	29.679 
17:25	90.1	90.1	99.4	59	73.8	2	5	248	0.00	29.683 
17:30	90.3	90.3	99.3	58	73.5	2	4	270	0.00	29.683 
17:35	90.5	90.5	99.7	58	73.7	2	4	292	0.00	29.683 
17:40	90.7	90.7	100.2	58	73.8	2	4	270	0.00	29.683 
17:45	90.7	90.7	99.6	57	73.3	3	7	248	0.00	29.699 
17:50	90.7	90.7	100.2	58	73.8	2	4	248	0.00	29.699 
17:55	90.7	90.7	99.6	57	73.3	2	6	270	0.00	29.699 
18:00	90.7	90.7	99.6	57	73.3	3	9	248	0.00	29.691 
18:05	90.7	90.7	99.6	57	73.3	2	4	270	0.00	29.691 
18:10	90.7	90.7	100.2	58	73.8	2	4	248	0.00	29.691 
18:15	90.5	90.5	99.7	58	73.7	1	3	270	0.00	29.692 
18:20	90.3	90.3	99.3	58	73.5	2	8	270	0.00	29.692 
18:25	90.3	90.3	98.7	57	73.0	3	6	270	0.00	29.692 
18:30	90.1	90.1	98.8	58	73.3	2	4	270	0.00	29.695 
18:35	89.9	89.9	98.3	58	73.1	2	5	270	0.00	29.695 
18:40	89.9	89.9	98.3	58	73.1	2	4	270	0.00	29.695 
18:45	89.9	89.9	98.3	58	73.1	2	5	270	0.00	29.703 
18:50	89.9	89.9	98.3	58	73.1	2	5	270	0.00	29.703 
18:55	89.9	89.9	98.3	58	73.1	2	4	248	0.00	29.703 
19:00	89.5	89.5	97.4	58	72.7	2	4	248	0.00	29.704 
19:05	89.3	89.3	97.5	59	73.1	2	5	270	0.00	29.704 
19:10	89.0	89.0	96.8	59	72.8	2	5	248	0.00	29.704 
19:15	88.8	88.8	96.4	59	72.6	2	5	270	0.00	29.708 
19:20	88.4	88.4	95.5	59	72.2	1	6	270	0.00	29.708 
19:25	88.2	88.2	95.6	60	72.5	1	5	270	0.00	29.708 
19:30	88.0	88.0	94.7	59	71.8	2	6	248	0.00	29.710 
19:35	87.8	87.8	94.7	60	72.1	1	4	270	0.00	29.710 
19:40	87.6	87.6	94.3	60	72.0	2	4	248	0.00	29.710 
19:45	87.6	87.6	94.3	60	72.0	1	3	270	0.00	29.717 
19:50	87.6	87.6	94.3	60	72.0	2	4	292	0.00	29.717 
19:55	87.4	87.4	93.9	60	71.8	2	5	270	0.00	29.717 
20:00	87.4	87.4	93.9	60	71.8	2	4	270	0.00	29.711 
20:05	87.4	87.4	93.9	60	71.8	1	4	270	0.00	29.711 
20:10	87.4	87.4	93.9	60	71.8	2	5	248	0.00	29.711 
20:15	87.2	87.2	93.5	60	71.6	1	3	248	0.00	29.708 
20:20	87.0	87.0	93.5	61	71.9	1	4	248	0.00	29.708 
20:25	86.7	86.7	92.9	61	71.6	1	5	248	0.00	29.708 
20:30	86.5	86.5	92.8	62	71.9	1	3	248	0.00	29.709 
20:35	86.3	86.3	92.4	62	71.7	1	2	248	0.00	29.709 
20:40	86.3	86.3	92.4	62	71.7	1	3	248	0.00	29.709 
20:45	86.1	86.1	92.0	62	71.5	0	3	270	0.00	29.711 
20:50	85.9	85.9	92.0	63	71.8	1	4	248	0.00	29.711 
20:55	85.9	85.9	92.0	63	71.8	1	2	225	0.00	29.711 
21:00	85.7	85.7	92.0	64	72.1	0	2	225	0.00	29.712 
21:05	85.5	85.5	91.6	64	71.9	0	1	225	0.00	29.712 
21:10	85.5	85.5	91.6	64	71.9	0	2	225	0.00	29.712 
21:15	85.3	85.3	91.5	65	72.2	1	3	225	0.00	29.710 
21:20	85.3	85.3	91.5	65	72.2	0	2	225	0.00	29.710 
21:25	85.1	85.1	91.1	65	72.0	0	1	225	0.00	29.710 
21:30	85.1	85.1	91.1	65	72.0	0	2	225	0.00	29.715 
21:35	84.9	84.9	90.7	65	71.8	0	3	225	0.00	29.715 
21:40	84.9	84.9	91.0	66	72.2	1	2	225	0.00	29.715 
21:45	84.7	84.7	90.6	66	72.1	0	1	225	0.00	29.720 
21:50	84.5	84.5	90.2	66	71.9	0	2	225	0.00	29.719 
21:55	84.7	84.7	90.6	66	72.1	1	3	248	0.00	29.719 
22:00	84.9	84.9	91.0	66	72.2	1	3	248	0.00	29.720 
22:05	84.7	84.7	90.6	66	72.1	0	2	248	0.00	29.720 
22:10	84.7	84.7	90.6	66	72.1	0	1	248	0.00	29.722 
22:15	84.5	84.5	90.5	67	72.3	0	2	248	0.00	29.721 
22:20	84.5	84.5	90.5	67	72.3	0	2	248	0.00	29.723 
22:25	84.3	84.3	90.1	67	72.1	0	1	248	0.00	29.724 
22:30	84.1	84.1	90.0	68	72.4	0	2	248	0.00	29.728 
22:35	84.0	84.0	89.8	68	72.3	1	3	248	0.00	29.726 
22:40	84.1	84.1	90.0	68	72.4	1	2	248	0.00	29.731 
22:45	84.1	84.1	90.4	69	72.8	1	3	248	0.00	29.731 
22:50	84.0	84.0	90.2	69	72.7	0	1	248	0.00	29.732 
22:55	83.8	83.8	89.7	69	72.5	0	1	248	0.00	29.733 
23:00	83.4	83.4	89.2	70	72.6	0	1	248	0.00	29.733 
23:05	83.4	83.4	89.5	71	73.0	0	1	248	0.00	29.728 
23:10	83.2	83.2	89.1	71	72.8	0	1	248	0.00	29.730 
23:15	83.0	83.0	88.9	72	73.0	0	1	248	0.00	29.730 
23:20	82.8	82.8	88.5	72	72.8	0	3	248	0.00	29.731 
23:25	82.8	82.8	88.5	72	72.8	0	1	248	0.00	29.732 
23:30	82.8	82.8	88.8	73	73.2	0	2	248	0.00	29.727 
23:35	82.6	82.6	88.4	73	73.0	0	2	248	0.00	29.731 
23:40	82.6	82.6	88.4	73	73.0	0	2	248	0.00	29.731 
23:45	82.6	82.6	88.4	73	73.0	0	2	248	0.00	29.733 
23:50	82.6	82.6	88.4	73	73.0	1	2	248	0.00	29.733 
23:55	82.4	82.4	88.2	74	73.3	0	1	248	0.00	29.733 

CoCoRaHS
IN-AL-39
A2 Web Hosting
Creative Commons License
GoDaddy
Look for:

loaded 2017-12-13 15:31:24 • last modified 2010-11-18 10:43:29
Privacy PolicyDisclaimer
• wx.awcolley.com is powered by PmWiki v.2002016 •
• all content (unless otherwise noted) © 2017 A W Colley